createdAt,value
2019-05-25T00:01:06.775Z,22.30
2019-05-25T00:03:37.171Z,21.97
2019-05-25T00:06:07.540Z,19.85
2019-05-25T00:08:37.969Z,22.15
2019-05-25T00:11:08.303Z,21.55
2019-05-25T00:13:38.695Z,21.33
2019-05-25T00:16:09.030Z,20.17
2019-05-25T00:18:39.354Z,24.65
2019-05-25T00:21:09.685Z,23.27
2019-05-25T00:23:40.129Z,21.17
2019-05-25T00:26:10.467Z,23.57
2019-05-25T00:28:40.845Z,24.67
2019-05-25T00:31:11.217Z,25.12
2019-05-25T00:33:41.546Z,22.70
2019-05-25T00:36:11.922Z,23.05
2019-05-25T00:38:42.337Z,21.57
2019-05-25T00:41:12.681Z,24.23
2019-05-25T00:43:43.018Z,21.70
2019-05-25T00:46:13.358Z,20.17
2019-05-25T00:48:43.718Z,23.05
2019-05-25T00:51:14.124Z,23.15
2019-05-25T00:53:44.484Z,21.60
2019-05-25T00:56:14.835Z,21.20
2019-05-25T00:58:45.282Z,22.85
2019-05-25T01:01:15.649Z,23.60
2019-05-25T01:03:46.039Z,25.20
2019-05-25T01:06:16.446Z,24.32
2019-05-25T01:08:46.962Z,25.10
2019-05-25T01:11:17.307Z,24.95
2019-05-25T01:13:47.682Z,24.90
2019-05-25T01:16:18.013Z,25.37
2019-05-25T01:18:48.369Z,23.05
2019-05-25T01:21:18.743Z,20.57
2019-05-25T01:23:49.059Z,23.15
2019-05-25T01:26:19.423Z,23.52
2019-05-25T01:28:49.836Z,25.77
2019-05-25T01:31:20.210Z,25.77
2019-05-25T01:33:50.656Z,25.15
2019-05-25T01:36:21.045Z,22.93
2019-05-25T01:38:51.647Z,24.12
2019-05-25T01:41:21.998Z,22.73
2019-05-25T01:43:52.379Z,32.00
2019-05-25T01:46:22.696Z,32.03
2019-05-25T01:48:53.099Z,31.15
2019-05-25T01:51:23.465Z,24.07
2019-05-25T01:53:53.856Z,24.92
2019-05-25T01:56:24.230Z,25.85
2019-05-25T01:58:54.591Z,27.73
2019-05-25T02:01:24.934Z,27.82
2019-05-25T02:03:55.297Z,27.67
2019-05-25T02:06:25.680Z,29.15
2019-05-25T02:08:56.333Z,30.60
2019-05-25T02:11:26.702Z,30.55
2019-05-25T02:13:57.099Z,24.10
2019-05-25T02:16:27.519Z,28.90
2019-05-25T02:18:57.835Z,30.95
2019-05-25T02:21:28.228Z,33.83
2019-05-25T02:23:58.557Z,31.62
2019-05-25T02:26:28.933Z,32.75
2019-05-25T02:28:59.372Z,33.63
2019-05-25T02:31:29.831Z,33.88
2019-05-25T02:34:00.189Z,36.48
2019-05-25T02:36:30.632Z,36.55
2019-05-25T02:39:01.112Z,34.03
2019-05-25T02:41:31.456Z,33.98
2019-05-25T02:44:01.820Z,34.63
2019-05-25T02:46:32.185Z,32.25
2019-05-25T02:49:02.623Z,34.63
2019-05-25T02:51:32.984Z,33.23
2019-05-25T02:54:03.375Z,31.45
2019-05-25T02:56:33.761Z,32.73
2019-05-25T02:59:04.229Z,35.23
2019-05-25T03:01:35.013Z,35.00
2019-05-25T03:04:05.589Z,37.38
2019-05-25T03:06:36.651Z,36.23
2019-05-25T03:09:08.511Z,38.98
2019-05-25T03:11:40.575Z,35.95
2019-05-25T03:14:10.929Z,39.08
2019-05-25T03:16:41.305Z,38.70
2019-05-25T03:19:11.621Z,38.95
2019-05-25T03:21:42.020Z,41.18
2019-05-25T03:24:12.399Z,39.88
2019-05-25T03:26:42.732Z,39.78
2019-05-25T03:29:13.191Z,40.43
2019-05-25T03:31:43.542Z,40.83
2019-05-25T03:34:13.867Z,41.83
2019-05-25T03:36:44.528Z,37.50
2019-05-25T03:39:14.900Z,33.78
2019-05-25T03:41:45.211Z,31.73
2019-05-25T03:44:15.600Z,36.90
2019-05-25T03:46:45.925Z,40.38
2019-05-25T03:49:16.306Z,37.10
2019-05-25T03:51:46.734Z,38.17
2019-05-25T03:54:17.088Z,36.08
2019-05-25T03:56:47.407Z,37.73
2019-05-25T03:59:17.786Z,39.40
2019-05-25T04:01:48.107Z,38.63
2019-05-25T04:04:18.535Z,38.73
2019-05-25T04:06:49.305Z,38.98
2019-05-25T04:09:19.641Z,36.45
2019-05-25T04:11:50.001Z,35.23
2019-05-25T04:14:20.414Z,36.58
2019-05-25T04:16:50.763Z,31.90
2019-05-25T04:19:21.141Z,35.35
2019-05-25T04:21:51.511Z,35.83
2019-05-25T04:24:21.839Z,37.13
2019-05-25T04:26:52.671Z,38.20
2019-05-25T04:29:23.052Z,40.35
2019-05-25T04:31:53.348Z,40.20
2019-05-25T04:34:23.720Z,37.38
2019-05-25T04:36:54.451Z,38.45
2019-05-25T04:39:24.768Z,38.08
2019-05-25T04:41:55.098Z,37.33
2019-05-25T04:44:25.496Z,37.05
2019-05-25T04:46:55.793Z,34.83
2019-05-25T04:49:26.166Z,35.40
2019-05-25T04:51:56.650Z,34.55
2019-05-25T04:54:27.009Z,32.38
2019-05-25T04:56:57.398Z,32.28
2019-05-25T04:59:27.733Z,30.20
2019-05-25T05:01:58.140Z,28.77
2019-05-25T05:04:28.540Z,29.63
2019-05-25T05:06:59.046Z,28.57
2019-05-25T05:09:29.374Z,29.98
2019-05-25T05:12:00.073Z,30.90
2019-05-25T05:14:30.405Z,28.77
2019-05-25T05:17:00.710Z,30.08
2019-05-25T05:19:31.080Z,29.05
2019-05-25T05:22:01.436Z,29.82
2019-05-25T05:24:31.758Z,27.25
2019-05-25T05:27:02.256Z,27.17
2019-05-25T05:29:32.586Z,28.80
2019-05-25T05:32:03.034Z,28.27
2019-05-25T05:34:33.468Z,29.35
2019-05-25T05:37:05.427Z,29.77
2019-05-25T05:39:36.387Z,28.85
2019-05-25T05:42:08.321Z,26.12
2019-05-25T05:44:41.819Z,30.48
2019-05-25T05:47:15.490Z,30.23
2019-05-25T05:49:46.733Z,28.85
2019-05-25T05:52:19.484Z,29.15
2019-05-25T05:54:51.451Z,27.52
2019-05-25T05:57:22.244Z,28.77
2019-05-25T05:59:52.596Z,30.37
2019-05-25T06:02:22.924Z,29.37
2019-05-25T06:04:53.247Z,30.52
2019-05-25T06:07:27.234Z,31.95
2019-05-25T06:09:55.740Z,30.43
2019-05-25T06:12:26.147Z,29.25
2019-05-25T06:14:56.494Z,30.68
2019-05-25T06:17:26.804Z,32.60
2019-05-25T06:19:57.266Z,30.92
2019-05-25T06:22:27.622Z,31.20
2019-05-25T06:24:58.081Z,32.98
2019-05-25T06:27:28.414Z,33.00
2019-05-25T06:29:58.805Z,33.50
2019-05-25T06:32:29.132Z,33.85
2019-05-25T06:34:59.572Z,33.85
2019-05-25T06:37:30.118Z,31.10
2019-05-25T06:40:01.354Z,33.88
2019-05-25T06:42:31.676Z,34.75
2019-05-25T06:45:02.036Z,33.90
2019-05-25T06:47:32.388Z,32.58
2019-05-25T06:50:02.778Z,32.65
2019-05-25T06:52:33.156Z,34.60
2019-05-25T06:55:03.605Z,34.20
2019-05-25T06:57:42.588Z,32.28
2019-05-25T07:00:08.657Z,31.52
2019-05-25T07:02:39.085Z,32.23
2019-05-25T07:05:10.998Z,31.60
2019-05-25T07:07:41.601Z,34.10
2019-05-25T07:10:12.366Z,34.18
2019-05-25T07:12:42.756Z,33.00
2019-05-25T07:15:13.307Z,36.88
2019-05-25T07:17:43.711Z,35.55
2019-05-25T07:20:14.412Z,35.92
2019-05-25T07:22:44.769Z,36.48
2019-05-25T07:25:15.408Z,34.60
2019-05-25T07:27:58.264Z,36.45
2019-05-25T07:30:18.130Z,35.40
2019-05-25T07:43:15.340Z,33.33
2019-05-25T07:48:50.486Z,34.92
2019-05-25T07:51:20.793Z,35.45
2019-05-25T07:53:51.144Z,34.43
2019-05-25T07:56:21.400Z,34.55
2019-05-25T07:58:51.988Z,33.42
2019-05-25T08:01:22.257Z,33.73
2019-05-25T08:03:52.671Z,33.18
2019-05-25T08:06:22.974Z,34.50
2019-05-25T08:08:53.797Z,35.05
2019-05-25T08:11:24.064Z,35.48
2019-05-25T08:13:54.687Z,38.02
2019-05-25T08:16:24.940Z,37.98
2019-05-25T08:18:55.533Z,38.05
2019-05-25T08:21:25.798Z,35.63
2019-05-25T08:23:56.191Z,36.88
2019-05-25T08:26:26.637Z,38.35
2019-05-25T08:28:57.398Z,41.05
2019-05-25T08:31:27.637Z,41.80
2019-05-25T08:33:58.032Z,43.65
2019-05-25T08:36:29.862Z,39.67
2019-05-25T08:39:00.294Z,37.53
2019-05-25T08:41:30.563Z,37.48
2019-05-25T08:44:04.262Z,40.38
2019-05-25T08:46:32.860Z,37.48
2019-05-25T08:49:03.148Z,35.48
2019-05-25T08:51:33.715Z,28.60
2019-05-25T08:54:03.961Z,26.27
2019-05-25T08:56:34.256Z,28.83
2019-05-25T08:59:05.073Z,28.23
2019-05-25T09:01:35.344Z,28.85
2019-05-25T09:04:05.626Z,26.73
2019-05-25T09:06:35.953Z,25.55
2019-05-25T09:09:08.133Z,21.87
2019-05-25T09:11:38.490Z,19.92
2019-05-25T09:14:08.798Z,23.95
2019-05-25T09:16:39.154Z,22.37
2019-05-25T09:19:09.504Z,21.93
2019-05-25T09:21:39.939Z,21.73
2019-05-25T09:24:10.271Z,21.23
2019-05-25T09:26:40.679Z,21.68
2019-05-25T09:29:11.461Z,22.52
2019-05-25T09:31:41.841Z,20.72
2019-05-25T09:34:12.175Z,20.25
2019-05-25T09:36:42.530Z,19.15
2019-05-25T09:39:12.833Z,19.55
2019-05-25T09:41:43.207Z,20.45
2019-05-25T09:44:13.587Z,22.05
2019-05-25T09:46:43.943Z,19.57
2019-05-25T09:49:14.342Z,14.90
2019-05-25T09:51:44.617Z,15.18
2019-05-25T09:54:14.934Z,17.48
2019-05-25T09:56:45.339Z,14.05
2019-05-25T09:59:20.011Z,13.28
2019-05-25T10:01:48.015Z,13.98
2019-05-25T10:04:18.338Z,13.15
2019-05-25T10:06:48.805Z,13.08
2019-05-25T10:09:19.521Z,13.15
2019-05-25T10:11:50.316Z,9.13
2019-05-25T10:14:21.496Z,8.10
2019-05-25T10:16:51.916Z,11.28
2019-05-25T10:19:22.397Z,11.48
2019-05-25T10:21:52.711Z,10.63
2019-05-25T10:24:23.234Z,10.72
2019-05-25T10:26:53.689Z,10.30
2019-05-25T10:29:36.603Z,9.98
2019-05-25T10:31:56.577Z,11.50
2019-05-25T10:34:26.891Z,11.63
2019-05-25T10:36:57.262Z,11.90
2019-05-25T10:39:27.654Z,10.72
2019-05-25T10:41:58.010Z,9.90
2019-05-25T10:44:28.544Z,11.00
2019-05-25T10:46:58.959Z,11.22
2019-05-25T10:49:29.464Z,12.03
2019-05-25T10:51:59.843Z,13.15
2019-05-25T10:54:30.192Z,14.53
2019-05-25T10:57:00.618Z,14.13
2019-05-25T10:59:32.337Z,15.08
2019-05-25T11:02:02.708Z,14.25
2019-05-25T11:04:33.255Z,14.10
2019-05-25T11:07:03.626Z,14.38
2019-05-25T11:09:34.040Z,14.35
2019-05-25T11:12:04.397Z,14.68
2019-05-25T11:14:34.763Z,15.32
2019-05-25T11:17:05.272Z,14.15
2019-05-25T11:19:35.784Z,16.05
2019-05-25T11:22:06.230Z,17.27
2019-05-25T11:24:36.643Z,16.42
2019-05-25T11:27:07.154Z,16.87
2019-05-25T11:29:37.891Z,17.15
2019-05-25T11:32:08.539Z,17.77
2019-05-25T11:34:39.280Z,16.52
2019-05-25T11:37:09.733Z,16.62
2019-05-25T11:39:40.079Z,19.42
2019-05-25T11:42:10.413Z,20.32
2019-05-25T11:44:40.889Z,17.90
2019-05-25T11:47:11.267Z,17.67
2019-05-25T11:49:41.654Z,19.65
2019-05-25T11:52:12.016Z,19.45
2019-05-25T11:54:42.420Z,19.60
2019-05-25T11:57:12.737Z,18.27
2019-05-25T11:59:43.336Z,17.82
2019-05-25T12:02:13.683Z,17.32
2019-05-25T12:04:44.047Z,17.90
2019-05-25T12:07:14.483Z,19.35
2019-05-25T12:09:44.912Z,19.10
2019-05-25T12:12:15.270Z,21.02
2019-05-25T12:14:45.628Z,21.95
2019-05-25T12:17:16.023Z,21.68
2019-05-25T12:19:46.504Z,21.15
2019-05-25T12:22:17.010Z,21.35
2019-05-25T12:24:47.435Z,20.27
2019-05-25T12:27:17.739Z,19.92
2019-05-25T12:29:48.093Z,21.48
2019-05-25T12:32:18.625Z,19.75
2019-05-25T12:34:48.944Z,21.70
2019-05-25T12:37:19.410Z,22.80
2019-05-25T12:39:49.754Z,23.47
2019-05-25T12:42:20.120Z,23.75
2019-05-25T12:44:50.479Z,24.65
2019-05-25T12:47:20.912Z,22.42
2019-05-25T12:49:51.417Z,23.25
2019-05-25T12:52:21.969Z,23.55
2019-05-25T12:54:52.386Z,23.12
2019-05-25T12:57:24.199Z,22.62
2019-05-25T12:59:54.895Z,24.98
2019-05-25T13:02:25.291Z,25.05
2019-05-25T13:04:55.634Z,25.55
2019-05-25T13:07:27.240Z,24.25
2019-05-25T13:09:57.617Z,25.02
2019-05-25T13:12:27.941Z,26.17
2019-05-25T13:14:58.508Z,25.12
2019-05-25T13:17:28.855Z,25.80
2019-05-25T13:19:59.225Z,24.25
2019-05-25T13:22:29.574Z,25.85
2019-05-25T13:24:59.970Z,27.10
2019-05-25T13:27:30.330Z,26.12
2019-05-25T13:30:03.288Z,27.67
2019-05-25T13:32:33.070Z,27.77
2019-05-25T13:35:03.600Z,29.85
2019-05-25T13:37:33.967Z,30.08
2019-05-25T13:40:04.384Z,29.07
2019-05-25T13:42:34.732Z,28.83
2019-05-25T13:45:06.269Z,30.95
2019-05-25T13:47:36.609Z,29.67
2019-05-25T13:50:08.478Z,30.88
2019-05-25T13:52:38.879Z,35.52
2019-05-25T13:55:11.358Z,33.35
2019-05-25T13:57:42.151Z,34.45
2019-05-25T14:00:13.063Z,33.40
2019-05-25T14:02:43.431Z,37.13
2019-05-25T14:05:15.001Z,36.08
2019-05-25T14:07:45.342Z,38.23
2019-05-25T14:10:15.823Z,42.83
2019-05-25T14:12:46.195Z,45.85
2019-05-25T14:15:16.880Z,47.08
2019-05-25T14:17:47.520Z,49.42
2019-05-25T14:20:17.965Z,48.98
2019-05-25T14:22:48.372Z,57.53
2019-05-25T14:25:18.750Z,53.50
2019-05-25T14:27:49.249Z,54.77
2019-05-25T14:30:19.700Z,57.95
2019-05-25T14:32:50.052Z,56.18
2019-05-25T14:35:20.427Z,54.30
2019-05-25T14:37:50.800Z,56.88
2019-05-25T14:40:21.347Z,51.18
2019-05-25T14:42:51.682Z,53.83
2019-05-25T14:45:22.102Z,54.93
2019-05-25T14:47:52.514Z,53.48
2019-05-25T14:50:22.838Z,47.20
2019-05-25T14:52:53.204Z,41.23
2019-05-25T14:55:23.599Z,37.88
2019-05-25T14:57:53.962Z,36.40
2019-05-25T15:00:24.353Z,39.25
2019-05-25T15:02:54.698Z,29.60
2019-05-25T15:05:25.019Z,27.22
2019-05-25T15:07:55.336Z,29.02
2019-05-25T15:10:25.694Z,36.42
2019-05-25T15:12:56.028Z,36.98
2019-05-25T15:15:26.351Z,35.65
2019-05-25T15:17:56.686Z,45.55
2019-05-25T15:20:27.031Z,40.35
2019-05-25T15:22:57.430Z,45.23
2019-05-25T15:25:27.773Z,42.85
2019-05-25T15:27:58.428Z,39.85
2019-05-25T15:30:28.747Z,37.73
2019-05-25T15:32:59.094Z,45.15
2019-05-25T15:35:29.440Z,42.88
2019-05-25T15:37:59.764Z,39.75
2019-05-25T15:40:30.139Z,41.77
2019-05-25T15:43:00.449Z,36.40
2019-05-25T15:45:30.805Z,33.05
2019-05-25T15:48:01.168Z,36.40
2019-05-25T15:50:31.534Z,24.80
2019-05-25T15:53:01.914Z,24.23
2019-05-25T15:55:32.257Z,23.38
2019-05-25T15:58:02.596Z,24.40
2019-05-25T16:00:51.247Z,20.15
2019-05-25T16:03:22.492Z,17.40
2019-05-25T16:05:52.919Z,20.30
2019-05-25T16:08:23.361Z,11.08
2019-05-25T16:10:53.699Z,11.33
2019-05-25T16:13:24.023Z,14.25
2019-05-25T16:15:54.435Z,12.70
2019-05-25T16:18:24.786Z,12.55
2019-05-25T16:20:55.205Z,11.57
2019-05-25T16:23:25.837Z,11.60
2019-05-25T16:25:56.508Z,10.43
2019-05-25T16:28:27.008Z,9.83
2019-05-25T16:30:57.360Z,9.78
2019-05-25T16:33:30.475Z,8.45
2019-05-25T16:36:02.927Z,6.65
2019-05-25T16:38:33.453Z,5.08
2019-05-25T16:41:03.868Z,5.30
2019-05-25T16:43:34.294Z,6.53
2019-05-25T16:46:06.586Z,3.83
2019-05-25T16:48:36.656Z,4.50
2019-05-25T16:51:09.852Z,2.42
2019-05-25T16:53:40.237Z,1.70
2019-05-25T16:56:11.160Z,4.22
2019-05-25T16:58:41.616Z,3.33
2019-05-25T17:01:12.034Z,1.30
2019-05-25T17:03:42.349Z,2.90
2019-05-25T17:06:12.903Z,4.08
2019-05-25T17:08:43.202Z,2.17
2019-05-25T17:11:13.809Z,5.22
2019-05-25T17:13:44.329Z,5.10
2019-05-25T17:16:14.764Z,5.95
2019-05-25T17:18:45.076Z,5.62
2019-05-25T17:21:15.408Z,6.75
2019-05-25T17:23:45.848Z,6.60
2019-05-25T17:26:16.162Z,5.33
2019-05-25T17:28:46.663Z,6.55
2019-05-25T17:31:16.993Z,8.83
2019-05-25T17:33:47.741Z,9.25
2019-05-25T17:36:18.135Z,5.92
2019-05-25T17:38:48.537Z,5.25
2019-05-25T17:41:18.858Z,6.28
2019-05-25T17:43:49.295Z,6.08
2019-05-25T17:46:19.690Z,6.05
2019-05-25T17:48:49.992Z,6.50
2019-05-25T17:51:20.351Z,6.20
2019-05-25T17:53:50.725Z,5.35
2019-05-25T17:56:21.046Z,6.22
2019-05-25T17:58:51.822Z,6.78
2019-05-25T18:01:22.178Z,7.37
2019-05-25T18:04:05.648Z,7.03
2019-05-25T18:06:24.591Z,6.55
2019-05-25T18:08:54.937Z,8.58
2019-05-25T18:11:25.310Z,7.83
2019-05-25T18:13:55.706Z,8.35
2019-05-25T18:16:26.128Z,7.50
2019-05-25T18:18:56.462Z,7.60
2019-05-25T18:21:26.840Z,6.87
2019-05-25T18:23:57.161Z,6.83
2019-05-25T18:26:27.538Z,6.55
2019-05-25T18:28:58.189Z,5.75
2019-05-25T18:31:28.555Z,6.37
2019-05-25T18:33:58.909Z,4.65
2019-05-25T18:36:29.387Z,4.95
2019-05-25T18:38:59.808Z,4.62
2019-05-25T18:41:30.196Z,4.85
2019-05-25T18:44:00.568Z,4.35
2019-05-25T18:46:30.909Z,4.30
2019-05-25T18:49:01.229Z,4.97
2019-05-25T18:51:31.576Z,6.10
2019-05-25T18:54:01.965Z,5.05
2019-05-25T18:56:32.281Z,5.87
2019-05-25T18:59:02.786Z,6.12
2019-05-25T19:01:33.172Z,6.15
2019-05-25T19:04:03.540Z,6.28
2019-05-25T19:06:33.895Z,5.95
2019-05-25T19:09:05.344Z,7.33
2019-05-25T19:11:36.104Z,6.83
2019-05-25T19:14:06.594Z,6.33
2019-05-25T19:16:36.903Z,6.37
2019-05-25T19:19:07.324Z,6.70
2019-05-25T19:21:37.678Z,7.62
2019-05-25T19:24:08.094Z,6.87
2019-05-25T19:26:38.409Z,7.87
2019-05-25T19:29:08.836Z,7.87
2019-05-25T19:31:39.295Z,8.23
2019-05-25T19:34:09.650Z,7.45
2019-05-25T19:36:40.067Z,8.48
2019-05-25T19:39:10.389Z,8.30
2019-05-25T19:41:40.756Z,8.48
2019-05-25T19:44:11.119Z,8.50
2019-05-25T19:46:41.469Z,8.85
2019-05-25T19:49:11.824Z,8.35
2019-05-25T19:51:42.285Z,7.62
2019-05-25T19:54:12.794Z,7.33
2019-05-25T19:56:43.479Z,8.25
2019-05-25T19:59:13.950Z,9.65
2019-05-25T20:01:44.323Z,8.75
2019-05-25T20:04:14.631Z,8.88
2019-05-25T20:06:45.059Z,7.28
2019-05-25T20:09:15.478Z,8.80
2019-05-25T20:11:45.894Z,8.30
2019-05-25T20:14:18.404Z,7.10
2019-05-25T20:16:48.623Z,8.53
2019-05-25T20:19:18.994Z,8.80
2019-05-25T20:21:49.371Z,8.73
2019-05-25T20:24:19.744Z,8.98
2019-05-25T20:26:50.054Z,8.65
2019-05-25T20:29:20.456Z,8.15
2019-05-25T20:31:50.826Z,9.03
2019-05-25T20:34:21.140Z,8.30
2019-05-25T20:36:51.501Z,9.85
2019-05-25T20:50:28.078Z,10.38
2019-05-25T20:52:58.494Z,9.23
2019-05-25T20:55:29.329Z,9.05
2019-05-25T20:58:04.377Z,8.58
2019-05-25T21:00:38.246Z,8.30
2019-05-25T21:03:09.015Z,8.03
2019-05-25T21:08:15.862Z,9.08
2019-05-25T21:10:46.603Z,10.20
2019-05-25T21:13:17.232Z,8.45
2019-05-25T21:15:48.576Z,9.55
2019-05-25T21:18:19.192Z,10.45
2019-05-25T21:20:50.165Z,10.10
2019-05-25T21:23:21.013Z,10.93
2019-05-25T21:25:53.428Z,10.55
2019-05-25T21:28:33.218Z,9.83
2019-05-25T21:31:04.002Z,11.12
2019-05-25T21:33:34.665Z,10.93
2019-05-25T21:36:08.699Z,11.35
2019-05-25T21:38:37.941Z,10.32
2019-05-25T21:41:08.737Z,10.18
2019-05-25T21:43:39.502Z,11.30
2019-05-25T21:46:10.275Z,10.68
2019-05-25T21:48:41.122Z,10.55
2019-05-25T21:51:11.896Z,10.32
2019-05-25T21:53:42.846Z,10.65
2019-05-25T21:56:13.777Z,9.95
2019-05-25T21:58:45.077Z,9.83
2019-05-25T22:01:16.945Z,10.68
2019-05-25T22:03:47.577Z,10.28
2019-05-25T22:06:24.408Z,10.32
2019-05-25T22:08:50.907Z,10.93
2019-05-25T22:11:21.857Z,11.93
2019-05-25T22:13:55.689Z,9.55
2019-05-25T22:16:26.422Z,11.53
2019-05-25T22:18:57.223Z,12.03
2019-05-25T22:21:28.178Z,14.25
2019-05-25T22:23:59.055Z,11.55
2019-05-25T22:26:31.235Z,11.70
2019-05-25T22:29:07.262Z,11.73
2019-05-25T22:31:40.093Z,11.73
2019-05-25T22:34:12.866Z,12.45
2019-05-25T22:36:43.743Z,10.30
2019-05-25T22:39:14.815Z,6.05
2019-05-25T22:41:45.674Z,8.33
2019-05-25T22:44:16.687Z,9.70
2019-05-25T22:46:47.490Z,9.73
2019-05-25T22:49:18.337Z,10.55
2019-05-25T22:51:49.321Z,11.20
2019-05-25T22:54:23.481Z,10.53
2019-05-25T22:56:56.114Z,10.75
2019-05-25T22:59:34.102Z,11.60
2019-05-25T23:02:04.938Z,11.38
2019-05-25T23:04:35.798Z,12.98
2019-05-25T23:07:09.114Z,12.93
2019-05-25T23:09:40.385Z,11.22
2019-05-25T23:12:16.479Z,11.95
2019-05-25T23:14:47.424Z,12.75
2019-05-25T23:17:18.179Z,11.25
2019-05-25T23:19:49.034Z,12.75
2019-05-25T23:22:19.729Z,14.03
2019-05-25T23:24:50.968Z,13.30
2019-05-25T23:27:21.853Z,13.78
2019-05-25T23:30:01.253Z,13.88
2019-05-25T23:32:32.093Z,13.80
2019-05-25T23:35:02.821Z,14.85
2019-05-25T23:37:33.390Z,13.95
2019-05-25T23:40:04.034Z,12.80
2019-05-25T23:42:34.729Z,12.63
2019-05-25T23:45:05.952Z,14.15
2019-05-25T23:47:36.675Z,14.63
2019-05-25T23:50:08.099Z,14.38
2019-05-25T23:52:38.707Z,14.50
2019-05-25T23:55:09.630Z,13.08
2019-05-25T23:57:47.856Z,14.20
